Time;durP1;ratioP1;P1;durP2;ratioP2;P2;SDS_P1;SDS_P2;PMS_P1;PMS_P2;Temp;Humidity;BMP_temperature;BMP_pressure;BME280_temperature;BME280_humidity;BME280_pressure;Samples;Min_cycle;Max_cycle;Signal;HPM_P1;HPM_P2
2023/06/04 00:00:10;;;;;;;352.50;189.02;;;;;;;20.03;73.63;99672.25;316325;30;1954;-80
2023/06/04 00:00:20;;;;;;;352.38;189.88;;;;;;;20.02;73.66;99667.91;316352;30;2750;-82
2023/06/04 00:00:31;;;;;;;353.13;189.13;;;;;;;20.00;73.54;99663.69;317248;31;1252;-81
2023/06/04 00:00:41;;;;;;;345.35;186.60;;;;;;;20.05;73.44;99675.63;317185;30;2393;-81
2023/06/04 00:00:52;;;;;;;347.63;185.20;;;;;;;20.06;73.16;99664.03;315542;31;2742;-81
2023/06/04 00:01:02;;;;;;;346.23;183.27;;;;;;;20.08;73.39;99664.75;313931;31;1501;-81
2023/06/04 00:01:13;;;;;;;352.03;185.57;;;;;;;20.09;73.33;99669.13;315624;31;3311;-81
2023/06/04 00:01:23;;;;;;;353.48;186.60;;;;;;;20.10;73.62;99662.00;317481;31;3675;-81
2023/06/04 00:01:34;;;;;;;355.27;187.97;;;;;;;20.10;73.32;99662.00;315552;31;2584;-81
2023/06/04 00:01:45;;;;;;;352.92;186.70;;;;;;;20.03;73.07;99672.25;310313;31;1225;-81
2023/06/04 00:01:56;;;;;;;349.85;182.52;;;;;;;19.94;73.38;99673.81;312546;31;2348;-81
2023/06/04 00:02:06;;;;;;;351.70;182.60;;;;;;;19.81;73.28;99673.13;311726;31;2665;-81
2023/06/04 00:02:17;;;;;;;350.48;181.27;;;;;;;19.76;73.85;99674.44;311539;31;1393;-81
2023/06/04 00:02:27;;;;;;;357.23;187.20;;;;;;;19.75;73.57;99667.44;310587;31;2416;-81
2023/06/04 00:02:38;;;;;;;358.60;189.43;;;;;;;19.76;73.78;99666.47;306226;32;2801;-81
2023/06/04 00:02:48;;;;;;;359.13;190.93;;;;;;;19.77;73.86;99665.50;303416;32;4303;-80
2023/06/04 00:02:58;;;;;;;356.73;188.87;;;;;;;19.79;73.96;99669.72;303072;32;1324;-80
2023/06/04 00:03:09;;;;;;;352.90;186.73;;;;;;;19.82;74.01;99671.31;304732;31;3727;-80
2023/06/04 00:03:19;;;;;;;352.23;187.00;;;;;;;19.85;73.40;99668.41;306854;31;4553;-79
2023/06/04 00:03:30;;;;;;;350.17;186.68;;;;;;;19.88;73.64;99662.84;303617;32;1371;-79
2023/06/04 00:03:41;;;;;;;353.25;186.38;;;;;;;19.91;73.65;99668.78;305794;32;5371;-80
2023/06/04 00:03:51;;;;;;;359.23;187.47;;;;;;;19.96;73.91;99668.38;304797;32;3475;-80
2023/06/04 00:04:02;;;;;;;359.27;188.90;;;;;;;19.96;73.94;99663.06;304065;32;1356;-80
2023/06/04 00:04:12;;;;;;;356.67;189.67;;;;;;;19.99;73.67;99665.50;297226;32;3149;-80
2023/06/04 00:04:23;;;;;;;351.80;189.48;;;;;;;19.92;72.98;99670.47;296870;32;2771;-80
2023/06/04 00:04:33;;;;;;;353.00;189.43;;;;;;;19.84;72.99;99662.25;296759;32;3459;-80
2023/06/04 00:04:44;;;;;;;358.63;193.57;;;;;;;19.85;73.34;99668.41;296128;33;1532;-80
2023/06/04 00:04:54;;;;;;;361.93;194.27;;;;;;;19.88;73.35;99673.47;293628;33;4543;-80
2023/06/04 00:05:05;;;;;;;358.70;188.95;;;;;;;19.89;73.27;99661.91;287684;33;6568;-80
2023/06/04 00:05:15;;;;;;;352.92;185.30;;;;;;;19.93;73.06;99668.63;284516;34;1321;-80
2023/06/04 00:05:26;;;;;;;349.77;184.73;;;;;;;19.96;73.35;99671.03;286276;33;5897;-80
2023/06/04 00:05:36;;;;;;;350.08;186.95;;;;;;;19.98;73.12;99670.91;284258;34;6252;-80
2023/06/04 00:05:47;;;;;;;350.60;186.87;;;;;;;20.01;72.77;99668.88;281682;35;1232;-80
2023/06/04 00:05:57;;;;;;;349.25;185.88;;;;;;;20.04;72.56;99667.78;284988;34;7724;-80
2023/06/04 00:06:08;;;;;;;349.83;188.77;;;;;;;20.07;72.79;99672.84;281518;34;5078;-80
2023/06/04 00:06:19;;;;;;;348.65;190.80;;;;;;;20.04;72.25;99663.31;279110;34;4902;-80
2023/06/04 00:06:30;;;;;;;348.13;192.45;;;;;;;20.00;72.43;99669.84;278285;35;848;-80
2023/06/04 00:06:40;;;;;;;348.08;189.05;;;;;;;20.00;72.31;99655.72;269461;35;5170;-81
2023/06/04 00:06:51;;;;;;;348.33;186.03;;;;;;;20.00;72.23;99671.66;267040;35;6418;-81
2023/06/04 00:07:01;;;;;;;348.00;184.95;;;;;;;19.99;72.73;99669.97;271293;36;1322;-81
2023/06/04 00:08:42;;;;;;;276.52;141.12;;;;;;;20.12;73.38;99665.38;2484051;27;20280;-80
2023/06/04 00:08:52;;;;;;;335.80;177.80;;;;;;;20.12;72.69;99671.53;354460;27;1248;-80
2023/06/04 00:09:03;;;;;;;338.00;179.87;;;;;;;20.13;72.72;99667.91;351652;28;1282;-80
2023/06/04 00:09:13;;;;;;;342.75;181.38;;;;;;;20.10;71.82;99660.19;347469;28;1266;-80
2023/06/04 00:09:24;;;;;;;345.30;181.90;;;;;;;20.05;71.88;99665.00;348485;28;1390;-80
2023/06/04 00:09:34;;;;;;;346.40;182.87;;;;;;;20.02;71.91;99669.72;347327;28;3406;-80
2023/06/04 00:09:46;;;;;;;346.73;186.45;;;;;;;20.03;72.19;99666.94;343896;28;1231;-79
2023/06/04 00:09:57;;;;;;;344.27;187.05;;;;;;;20.05;72.23;99659.69;347455;28;879;-81
2023/06/04 00:10:08;;;;;;;344.03;187.07;;;;;;;20.04;72.11;99668.63;347524;28;1200;-80
2023/06/04 00:10:18;;;;;;;344.25;182.02;;;;;;;20.05;71.91;99669.47;347412;28;1280;-80
2023/06/04 00:10:28;;;;;;;348.97;186.33;;;;;;;20.06;71.97;99666.69;347965;28;1339;-80
2023/06/04 00:10:39;;;;;;;350.13;186.75;;;;;;;20.08;72.01;99664.75;350304;28;1279;-80
2023/06/04 00:10:50;;;;;;;348.67;188.32;;;;;;;20.09;72.23;99666.47;348677;28;1257;-81
2023/06/04 00:11:00;;;;;;;351.80;189.70;;;;;;;20.08;71.75;99670.09;348930;28;788;-81
2023/06/04 00:11:11;;;;;;;348.42;187.45;;;;;;;20.08;72.08;99666.56;347219;28;1311;-80
2023/06/04 00:11:21;;;;;;;345.20;185.77;;;;;;;20.09;72.50;99666.47;346215;28;825;-79
2023/06/04 00:11:33;;;;;;;341.27;184.10;;;;;;;20.09;72.13;99661.16;346159;28;1184;-79
2023/06/04 00:11:45;;;;;;;344.05;184.80;;;;;;;20.12;72.13;99671.53;346053;28;1287;-79
2023/06/04 00:11:55;;;;;;;345.85;184.40;;;;;;;20.12;72.20;99665.38;345840;28;1433;-79
2023/06/04 00:12:06;;;;;;;346.17;187.03;;;;;;;20.14;71.89;99664.28;344699;28;1323;-79
2023/06/04 00:12:16;;;;;;;341.92;184.73;;;;;;;20.13;71.75;99657.28;346244;28;1224;-79
2023/06/04 00:12:27;;;;;;;342.33;185.60;;;;;;;20.14;71.85;99663.44;346142;28;1247;-79
2023/06/04 00:12:37;;;;;;;340.55;183.27;;;;;;;20.13;72.12;99662.59;343735;28;1223;-80
2023/06/04 00:12:48;;;;;;;342.53;185.43;;;;;;;20.16;71.67;99666.81;343842;28;1301;-80
2023/06/04 00:12:58;;;;;;;342.95;184.65;;;;;;;20.13;71.52;99662.59;346171;28;844;-80
2023/06/04 00:13:09;;;;;;;346.37;186.47;;;;;;;20.12;71.35;99660.06;347408;28;1187;-80
2023/06/04 00:13:19;;;;;;;352.20;188.37;;;;;;;20.12;71.56;99666.22;347513;28;1231;-80
2023/06/04 00:13:30;;;;;;;351.42;188.35;;;;;;;20.07;71.29;99665.72;349024;28;891;-80
2023/06/04 00:13:40;;;;;;;347.73;186.35;;;;;;;20.02;71.89;99670.56;350012;28;2567;-80
2023/06/04 00:13:51;;;;;;;346.20;185.63;;;;;;;19.93;71.80;99665.97;345992;28;1217;-81
2023/06/04 00:14:01;;;;;;;347.58;186.27;;;;;;;19.89;72.13;99665.41;348279;28;1150;-81
2023/06/04 00:14:13;;;;;;;351.13;186.80;;;;;;;19.88;72.23;99670.81;347500;28;1291;-81
2023/06/04 00:14:23;;;;;;;354.67;186.73;;;;;;;19.90;72.13;99656.47;346700;28;1380;-81
2023/06/04 00:14:34;;;;;;;353.67;185.90;;;;;;;19.94;72.32;99667.66;347743;28;1204;-81
2023/06/04 00:14:44;;;;;;;352.77;186.30;;;;;;;19.96;71.71;99659.56;347509;28;1189;-81
2023/06/04 00:14:54;;;;;;;348.20;185.43;;;;;;;19.94;71.69;99662.34;345317;28;962;-81
2023/06/04 00:15:05;;;;;;;347.73;184.80;;;;;;;19.98;71.87;99669.13;345092;28;1243;-81
2023/06/04 00:15:16;;;;;;;346.10;184.32;;;;;;;19.99;71.66;99670.81;343132;28;1353;-81
2023/06/04 00:15:26;;;;;;;343.95;183.45;;;;;;;20.02;71.69;99672.38;342103;28;1244;-81
2023/06/04 00:15:37;;;;;;;345.83;184.77;;;;;;;20.03;71.72;99671.41;344194;28;1270;-81
2023/06/04 00:15:48;;;;;;;349.13;188.38;;;;;;;20.00;71.42;99659.22;344858;28;1326;-81
2023/06/04 00:15:58;;;;;;;347.80;185.55;;;;;;;20.03;72.90;99668.75;341278;28;1263;-80
2023/06/04 00:16:08;;;;;;;352.43;186.43;;;;;;;20.05;72.37;99675.63;341968;28;1217;-80
2023/06/04 00:16:19;;;;;;;351.48;186.95;;;;;;;20.06;72.59;99665.84;340402;28;1347;-80
2023/06/04 00:16:29;;;;;;;354.60;190.70;;;;;;;20.07;72.32;99668.38;338086;29;1223;-79
2023/06/04 00:16:40;;;;;;;355.92;191.45;;;;;;;20.07;72.06;99668.38;339144;28;1407;-80
2023/06/04 00:16:51;;;;;;;354.70;189.57;;;;;;;20.10;72.06;99664.66;339483;28;1285;-80
2023/06/04 00:17:01;;;;;;;349.35;185.80;;;;;;;20.11;71.64;99664.53;337889;29;1294;-80
2023/06/04 00:17:11;;;;;;;345.33;187.00;;;;;;;20.12;71.45;99666.22;338114;29;1216;-80
2023/06/04 00:17:22;;;;;;;345.15;187.60;;;;;;;20.08;71.39;99664.75;335574;29;1839;-80
2023/06/04 00:17:32;;;;;;;345.83;189.17;;;;;;;20.05;71.62;99672.97;336715;29;1982;-80
2023/06/04 00:17:43;;;;;;;346.40;189.63;;;;;;;20.06;71.66;99664.03;338084;29;1206;-80
2023/06/04 00:17:53;;;;;;;347.73;187.75;;;;;;;20.07;71.75;99663.06;339983;28;1225;-80
2023/06/04 00:18:04;;;;;;;345.75;187.40;;;;;;;20.01;71.77;99665.38;338057;29;1377;-80
2023/06/04 00:18:14;;;;;;;348.57;187.57;;;;;;;20.00;71.72;99663.69;336949;29;1200;-80
2023/06/04 00:18:25;;;;;;;347.98;188.73;;;;;;;20.02;71.71;99670.56;339200;29;1286;-80
2023/06/04 00:18:36;;;;;;;351.98;191.38;;;;;;;20.02;71.71;99667.06;333008;29;1750;-81
2023/06/04 00:18:46;;;;;;;353.73;193.77;;;;;;;20.01;72.05;99671.53;331557;29;1663;-81
2023/06/04 00:18:57;;;;;;;354.58;194.07;;;;;;;20.06;71.87;99668.50;335847;29;1293;-81
2023/06/04 00:19:08;;;;;;;351.80;192.07;;;;;;;20.06;71.94;99665.84;332192;29;1819;-81
2023/06/04 00:19:18;;;;;;;349.05;189.55;;;;;;;20.04;71.45;99670.44;329778;29;1900;-81
2023/06/04 00:19:29;;;;;;;348.60;189.87;;;;;;;20.01;71.28;99668.88;330433;29;1349;-81
2023/06/04 00:19:40;;;;;;;349.57;190.67;;;;;;;20.04;71.31;99671.28;329792;29;2070;-81
2023/06/04 00:19:51;;;;;;;344.90;187.18;;;;;;;20.05;71.53;99675.63;329732;29;1749;-81
2023/06/04 00:20:02;;;;;;;344.23;186.50;;;;;;;20.05;71.76;99661.50;326797;30;1017;-81
2023/06/04 00:20:12;;;;;;;345.58;186.65;;;;;;;20.05;71.58;99665.00;325570;30;1220;-81
2023/06/04 00:20:22;;;;;;;349.42;185.70;;;;;;;20.07;71.84;99657.75;326336;30;1241;-81
2023/06/04 00:20:33;;;;;;;351.10;185.57;;;;;;;20.08;71.87;99664.75;323964;30;1751;-81
2023/06/04 00:20:43;;;;;;;350.00;184.27;;;;;;;20.04;71.50;99668.63;322000;30;1237;-81
2023/06/04 00:20:54;;;;;;;352.70;187.90;;;;;;;20.03;71.69;99661.63;320119;30;2003;-81
2023/06/04 00:21:04;;;;;;;353.33;188.47;;;;;;;20.06;71.52;99669.34;320303;30;2278;-81
2023/06/04 00:21:15;;;;;;;356.15;189.50;;;;;;;20.04;71.60;99663.31;321047;30;939;-81
2023/06/04 00:21:25;;;;;;;356.50;189.87;;;;;;;20.07;71.31;99665.72;322754;30;2371;-81
2023/06/04 00:21:35;;;;;;;354.30;189.48;;;;;;;20.08;71.06;99663.91;324369;30;2469;-81
2023/06/04 00:21:46;;;;;;;355.17;192.20;;;;;;;20.08;71.19;99659.44;325206;30;2542;-81
2023/06/04 00:21:56;;;;;;;348.92;189.65;;;;;;;20.11;71.01;99664.53;322817;30;1330;-81
2023/06/04 00:22:07;;;;;;;348.27;189.47;;;;;;;20.11;71.20;99666.34;319958;30;1896;-81
2023/06/04 00:22:17;;;;;;;344.27;185.82;;;;;;;20.11;71.05;99661.88;318482;30;1080;-81
2023/06/04 00:22:28;;;;;;;349.17;189.57;;;;;;;20.10;71.28;99662.84;320165;30;1211;-81
2023/06/04 00:22:41;;;;;;;348.42;188.93;;;;;;;20.11;71.39;99659.22;317253;30;1670;-81
2023/06/04 00:22:51;;;;;;;347.10;188.68;;;;;;;20.11;71.17;99661.03;313786;30;2315;-81
2023/06/04 00:23:02;;;;;;;348.03;188.47;;;;;;;20.13;71.39;99667.91;310286;31;2767;-81
2023/06/04 00:23:12;;;;;;;345.05;188.00;;;;;;;20.12;71.09;99663.56;311799;31;1289;-81
2023/06/04 00:23:23;;;;;;;346.00;189.97;;;;;;;20.11;71.48;99664.53;311422;31;3169;-81
2023/06/04 00:23:33;;;;;;;343.50;188.80;;;;;;;20.12;71.65;99666.22;311009;31;2876;-81
2023/06/04 00:23:43;;;;;;;345.73;188.97;;;;;;;20.14;71.49;99664.28;309371;31;1309;-81
2023/06/04 00:23:54;;;;;;;341.35;184.60;;;;;;;20.14;71.37;99658.97;311955;31;3100;-81
2023/06/04 00:24:05;;;;;;;343.83;186.70;;;;;;;20.14;70.98;99664.28;310898;31;3081;-81
2023/06/04 00:24:16;;;;;;;342.45;187.38;;;;;;;20.12;70.98;99666.22;309588;31;1013;-81
2023/06/04 00:24:26;;;;;;;344.98;190.32;;;;;;;20.12;71.74;99668.88;309643;31;1302;-81
2023/06/04 00:24:37;;;;;;;346.43;189.23;;;;;;;20.12;72.44;99666.22;310231;31;2184;-81
2023/06/04 00:24:48;;;;;;;346.67;189.18;;;;;;;20.10;71.65;99665.50;306013;32;2637;-81
2023/06/04 00:24:58;;;;;;;348.05;188.63;;;;;;;20.05;71.00;99665.00;302158;32;1418;-81
2023/06/04 00:25:09;;;;;;;349.93;190.83;;;;;;;20.03;71.66;99672.25;301501;32;3595;-81
2023/06/04 00:25:20;;;;;;;352.75;191.57;;;;;;;20.02;71.40;99665.25;298585;32;4181;-81
2023/06/04 00:25:31;;;;;;;352.70;190.83;;;;;;;20.03;71.28;99664.28;298007;33;972;-81
2023/06/04 00:25:41;;;;;;;350.00;190.90;;;;;;;20.04;71.22;99659.81;293700;33;2848;-81
2023/06/04 00:25:52;;;;;;;351.55;191.35;;;;;;;20.05;71.11;99659.69;290713;33;3993;-81
2023/06/04 00:26:03;;;;;;;354.30;194.17;;;;;;;20.05;71.88;99664.16;288481;33;4189;-81
2023/06/04 00:26:13;;;;;;;358.52;196.60;;;;;;;20.06;72.04;99666.69;289247;34;1348;-81
2023/06/04 00:26:24;;;;;;;357.00;195.93;;;;;;;20.05;71.57;99666.81;291068;33;4453;-82
2023/06/04 00:26:35;;;;;;;359.02;196.50;;;;;;;20.01;71.25;99658.25;289255;33;4409;-81
2023/06/04 00:26:45;;;;;;;360.80;197.53;;;;;;;20.00;71.41;99658.38;287450;34;1123;-81
2023/06/04 00:26:56;;;;;;;360.42;196.32;;;;;;;20.00;71.78;99658.38;287083;34;2520;-81
2023/06/04 00:27:10;;;;;;;357.10;193.23;;;;;;;19.93;71.73;99666.81;285058;34;4210;-81
2023/06/04 00:27:20;;;;;;;357.20;193.13;;;;;;;19.91;71.87;99657.31;284026;34;5178;-81
2023/06/04 00:27:31;;;;;;;355.08;191.40;;;;;;;19.93;71.96;99669.47;284704;34;1346;-81
2023/06/04 00:27:41;;;;;;;362.37;196.60;;;;;;;19.89;71.65;99665.41;281745;35;1409;-80
2023/06/04 00:27:51;;;;;;;366.38;197.10;;;;;;;19.92;72.08;99665.16;284199;34;7250;-80
2023/06/04 00:28:02;;;;;;;370.00;200.10;;;;;;;19.93;71.85;99666.81;280613;34;6472;-80
2023/06/04 00:28:12;;;;;;;367.88;199.57;;;;;;;19.85;71.86;99668.41;279053;35;1276;-80
2023/06/04 00:28:25;;;;;;;367.00;199.40;;;;;;;19.84;72.04;99661.41;277688;35;5967;-80
2023/06/04 00:28:35;;;;;;;364.65;195.93;;;;;;;19.82;72.39;99666.00;276367;35;5362;-81
2023/06/04 00:28:46;;;;;;;361.67;193.38;;;;;;;19.85;72.08;99663.09;274823;35;1374;-80
2023/06/04 00:28:56;;;;;;;360.17;193.93;;;;;;;19.88;72.04;99660.19;268414;36;851;-80
2023/06/04 00:29:06;;;;;;;360.58;193.48;;;;;;;19.90;72.18;99666.25;266730;36;5283;-80
2023/06/04 00:29:17;;;;;;;360.93;194.47;;;;;;;19.91;72.55;99665.28;263517;36;6201;-81
2023/06/04 00:29:27;;;;;;;363.90;194.70;;;;;;;19.90;72.39;99661.78;264237;37;1594;-82
2023/06/04 00:29:38;;;;;;;370.53;201.13;;;;;;;19.93;72.12;99666.81;259319;37;7414;-81
2023/06/04 00:31:35;;;;;;;327.31;170.29;;;;;;;19.88;72.34;99670.81;2492694;27;20358;-81
2023/06/04 00:31:45;;;;;;;332.83;176.90;;;;;;;19.90;72.61;99672.41;351770;28;1343;-81
2023/06/04 00:31:56;;;;;;;335.48;178.10;;;;;;;19.91;72.66;99665.28;347435;28;1450;-80
2023/06/04 00:32:07;;;;;;;338.83;182.83;;;;;;;19.91;72.62;99665.28;348861;28;1259;-80
2023/06/04 00:32:17;;;;;;;340.13;183.40;;;;;;;19.92;72.55;99672.28;349872;28;1363;-80
2023/06/04 00:32:27;;;;;;;338.15;183.38;;;;;;;19.93;72.53;99663.31;348800;28;1384;-80
2023/06/04 00:32:38;;;;;;;336.60;183.90;;;;;;;19.94;72.50;99670.31;348443;28;1227;-81
2023/06/04 00:32:49;;;;;;;337.45;183.95;;;;;;;19.97;72.77;99671.88;347347;28;1152;-81
2023/06/04 00:33:00;;;;;;;341.03;185.67;;;;;;;19.94;72.61;99673.81;346670;28;1367;-81
2023/06/04 00:33:11;;;;;;;341.55;183.45;;;;;;;19.85;72.73;99673.72;345629;28;1468;-81
2023/06/04 00:33:21;;;;;;;342.90;184.43;;;;;;;19.76;73.22;99675.28;343251;28;1285;-81
2023/06/04 00:33:32;;;;;;;348.33;185.27;;;;;;;19.78;72.96;99672.50;344557;28;1332;-81
2023/06/04 00:33:42;;;;;;;351.17;185.40;;;;;;;19.80;72.74;99667.91;344715;28;1203;-81
2023/06/04 00:33:52;;;;;;;352.65;186.82;;;;;;;19.79;72.65;99674.19;343920;28;1248;-81
2023/06/04 00:34:03;;;;;;;355.23;188.53;;;;;;;19.75;72.99;99667.44;346056;28;1223;-80
2023/06/04 00:34:14;;;;;;;355.20;189.52;;;;;;;19.70;73.00;99666.94;346510;28;1423;-80
2023/06/04 00:34:24;;;;;;;353.58;188.30;;;;;;;19.67;73.41;99669.84;346370;28;919;-80
2023/06/04 00:34:35;;;;;;;351.17;186.87;;;;;;;19.70;73.29;99672.25;342039;28;1386;-80
2023/06/04 00:34:52;;;;;;;347.50;183.63;;;;;;;19.71;73.33;99671.28;346083;28;1272;-80
2023/06/04 00:35:03;;;;;;;341.15;180.65;;;;;;;19.76;73.09;99674.44;346195;28;3480;-80
2023/06/04 00:35:13;;;;;;;340.93;183.53;;;;;;;19.78;72.87;99669.84;347126;28;3045;-80
2023/06/04 00:35:23;;;;;;;344.52;185.10;;;;;;;19.80;73.04;99681.19;348566;28;1252;-80
2023/06/04 00:35:34;;;;;;;348.93;188.63;;;;;;;19.79;73.17;99677.69;347756;28;1367;-80
2023/06/04 00:35:45;;;;;;;350.10;187.25;;;;;;;19.82;72.92;99673.97;346549;28;3781;-80
2023/06/04 00:35:55;;;;;;;353.08;187.30;;;;;;;19.85;72.88;99673.72;347684;28;1138;-81
2023/06/04 00:36:06;;;;;;;352.27;185.43;;;;;;;19.85;72.93;99673.72;346110;28;808;-82
2023/06/04 00:36:16;;;;;;;353.77;185.90;;;;;;;19.85;73.14;99671.91;345864;28;1219;-81
2023/06/04 00:36:26;;;;;;;353.00;188.10;;;;;;;19.86;72.95;99664.78;343381;28;1406;-81
2023/06/04 00:36:37;;;;;;;352.65;187.77;;;;;;;19.86;73.04;99670.09;344742;28;1419;-81
2023/06/04 00:36:48;;;;;;;350.93;186.13;;;;;;;19.83;73.02;99667.69;346060;28;1204;-81
2023/06/04 00:36:58;;;;;;;350.23;185.60;;;;;;;19.83;72.70;99675.66;347912;28;967;-81
2023/06/04 00:37:08;;;;;;;353.67;186.70;;;;;;;19.80;73.05;99676.75;345920;28;1331;-80
2023/06/04 00:37:20;;;;;;;352.90;187.80;;;;;;;19.80;72.60;99673.22;347455;28;833;-80
2023/06/04 00:37:30;;;;;;;351.35;187.23;;;;;;;19.80;72.65;99667.91;343577;28;1414;-80
2023/06/04 00:37:41;;;;;;;349.37;186.53;;;;;;;19.78;73.13;99672.50;341751;28;1350;-80
2023/06/04 00:37:51;;;;;;;347.88;184.18;;;;;;;19.80;73.28;99675.88;344747;28;1194;-80
2023/06/04 00:38:02;;;;;;;350.93;186.33;;;;;;;19.78;73.18;99672.50;344318;28;1182;-80
2023/06/04 00:38:12;;;;;;;353.15;188.55;;;;;;;19.70;73.15;99669.59;343294;28;1284;-80
2023/06/04 00:38:22;;;;;;;358.47;189.63;;;;;;;19.69;73.38;99674.06;340667;28;1328;-80
2023/06/04 00:38:33;;;;;;;355.58;186.50;;;;;;;19.69;73.31;99667.91;343765;28;1156;-80
2023/06/04 00:38:43;;;;;;;355.60;184.90;;;;;;;19.65;73.49;99666.44;344630;28;1200;-81
2023/06/04 00:38:54;;;;;;;350.95;182.07;;;;;;;19.65;73.54;99669.94;340613;28;1474;-81
2023/06/04 00:39:04;;;;;;;350.77;182.87;;;;;;;19.64;73.69;99670.06;342064;28;1331;-81
2023/06/04 00:39:15;;;;;;;350.47;182.80;;;;;;;19.67;73.45;99669.84;341997;28;1204;-81
2023/06/04 00:39:25;;;;;;;352.37;185.07;;;;;;;19.68;73.64;99674.19;342141;28;1216;-81
2023/06/04 00:39:35;;;;;;;349.83;184.63;;;;;;;19.66;73.77;99673.44;344683;28;1245;-81
2023/06/04 00:39:46;;;;;;;344.15;183.27;;;;;;;19.65;73.62;99677.06;343246;28;1400;-81
2023/06/04 00:39:56;;;;;;;340.47;182.80;;;;;;;19.64;73.67;99670.06;342662;28;1262;-81
2023/06/04 00:40:07;;;;;;;341.65;181.55;;;;;;;19.62;73.89;99666.69;339359;29;1270;-81
2023/06/04 00:40:18;;;;;;;348.73;181.93;;;;;;;19.56;73.89;99673.31;338947;29;1473;-81
2023/06/04 00:40:28;;;;;;;352.70;183.17;;;;;;;19.55;73.93;99668.97;338505;29;1916;-81
2023/06/04 00:40:38;;;;;;;350.38;182.57;;;;;;;19.50;74.34;99668.44;336857;29;1377;-81
2023/06/04 00:40:49;;;;;;;344.10;182.83;;;;;;;19.47;74.51;99669.53;335671;29;1494;-81
2023/06/04 00:41:00;;;;;;;342.30;181.68;;;;;;;19.41;74.73;99662.06;338073;29;895;-81
2023/06/04 00:41:10;;;;;;;345.17;184.00;;;;;;;19.45;74.84;99668.81;336849;29;1644;-81
2023/06/04 00:41:20;;;;;;;345.52;181.57;;;;;;;19.47;74.70;99658.94;335438;29;1217;-81
2023/06/04 00:41:31;;;;;;;350.70;184.07;;;;;;;19.51;74.46;99667.50;336949;29;1551;-81
2023/06/04 00:41:41;;;;;;;349.77;182.07;;;;;;;19.54;74.63;99670.78;332481;29;1517;-81
2023/06/04 00:41:52;;;;;;;351.00;183.13;;;;;;;19.57;74.41;99670.53;329542;29;1358;-81
2023/06/04 00:42:02;;;;;;;351.87;183.17;;;;;;;19.60;74.43;99666.81;329738;29;1721;-81
2023/06/04 00:42:12;;;;;;;351.65;180.52;;;;;;;19.63;74.21;99669.22;326844;29;1837;-81
2023/06/04 00:42:23;;;;;;;352.57;181.30;;;;;;;19.64;74.22;99667.41;325709;30;1277;-81
2023/06/04 00:42:34;;;;;;;349.80;179.50;;;;;;;19.66;74.17;99668.13;324248;30;1404;-81
2023/06/04 00:42:45;;;;;;;351.10;181.50;;;;;;;19.65;74.18;99667.28;330533;29;1613;-80
2023/06/04 00:42:55;;;;;;;350.63;180.63;;;;;;;19.60;74.27;99670.31;328750;29;1391;-81
2023/06/04 00:43:06;;;;;;;353.13;181.77;;;;;;;19.60;74.27;99664.16;326898;30;1399;-81
2023/06/04 00:43:16;;;;;;;353.93;183.10;;;;;;;19.62;74.29;99669.34;327205;30;1580;-81
2023/06/04 00:43:27;;;;;;;355.85;186.55;;;;;;;19.59;74.41;99667.75;327034;29;1818;-81
2023/06/04 00:43:37;;;;;;;352.85;187.98;;;;;;;19.58;74.33;99666.06;326821;30;1440;-81
2023/06/04 00:43:55;;;;;;;352.03;187.90;;;;;;;19.55;74.46;99667.16;327422;29;2211;-81
2023/06/04 00:44:06;;;;;;;340.30;179.73;;;;;;;19.52;74.58;99667.38;323223;30;1457;-82
2023/06/04 00:44:17;;;;;;;339.10;181.27;;;;;;;19.44;74.77;99664.47;322920;30;2288;-80
2023/06/04 00:44:28;;;;;;;344.95;182.45;;;;;;;19.39;75.06;99671.94;322346;30;3350;-80
2023/06/04 00:44:44;;;;;;;349.17;183.45;;;;;;;19.37;75.11;99665.06;318901;30;3406;-81
2023/06/04 00:44:57;;;;;;;354.77;187.18;;;;;;;19.34;75.19;99671.44;315120;31;3319;-80
2023/06/04 00:45:13;;;;;;;352.55;185.65;;;;;;;19.39;75.79;99671.94;315740;31;1476;-81
2023/06/04 00:45:25;;;;;;;344.55;178.77;;;;;;;19.42;75.16;99660.25;316325;31;1550;-81
2023/06/04 00:45:36;;;;;;;347.15;180.77;;;;;;;19.47;75.11;99664.25;312985;31;1627;-81
2023/06/04 00:45:46;;;;;;;346.35;181.07;;;;;;;19.51;75.13;99659.53;314403;31;2190;-81
2023/06/04 00:46:00;;;;;;;349.45;182.48;;;;;;;19.54;74.64;99665.47;313827;31;2484;-81
2023/06/04 00:46:22;;;;;;;349.20;181.55;;;;;;;19.62;74.62;99672.00;314122;31;935;-81
2023/06/04 00:46:33;;;;;;;348.15;179.35;;;;;;;19.65;75.19;99669.09;316138;31;3093;-82
2023/06/04 00:46:45;;;;;;;350.10;181.25;;;;;;;19.68;75.26;99669.72;311179;31;2888;-82
2023/06/04 00:46:55;;;;;;;348.35;181.60;;;;;;;19.70;74.59;99669.59;308477;31;2224;-82
2023/06/04 00:47:07;;;;;;;351.65;185.30;;;;;;;19.69;74.43;99674.06;310175;31;1254;-81
2023/06/04 00:47:18;;;;;;;347.74;185.04;;;;;;;19.75;74.72;99670.09;313108;31;1731;-81
2023/06/04 00:47:29;;;;;;;350.95;189.93;;;;;;;19.72;74.45;99668.50;317542;31;1613;-81
2023/06/04 00:47:41;;;;;;;354.17;193.93;;;;;;;19.77;74.99;99673.47;313919;31;2134;-80
2023/06/04 00:47:52;;;;;;;359.40;196.82;;;;;;;19.77;75.09;99671.66;308452;31;1237;-82
2023/06/04 00:48:03;;;;;;;363.05;198.95;;;;;;;19.81;76.05;99672.28;308465;31;2776;-81
2023/06/04 00:48:14;;;;;;;365.20;197.38;;;;;;;19.79;75.78;99669.72;306494;32;3084;-81
2023/06/04 00:48:27;;;;;;;363.20;197.63;;;;;;;19.83;75.76;99675.66;301633;32;3374;-82
2023/06/04 00:48:38;;;;;;;347.67;191.43;;;;;;;19.84;75.49;99672.03;301076;32;936;-82
2023/06/04 00:48:54;;;;;;;340.63;188.32;;;;;;;19.86;75.56;99678.06;298952;32;1407;-82
2023/06/04 00:49:06;;;;;;;338.38;189.55;;;;;;;19.87;75.27;99669.13;295015;33;1529;-80
2023/06/04 00:49:17;;;;;;;335.00;188.88;;;;;;;19.87;75.01;99677.09;294042;33;2598;-82
2023/06/04 00:49:27;;;;;;;334.73;190.07;;;;;;;19.87;75.46;99679.75;291130;33;2662;-82
2023/06/04 00:49:39;;;;;;;335.92;190.10;;;;;;;19.86;75.44;99676.25;288682;34;1383;-82
2023/06/04 00:49:51;;;;;;;338.58;191.52;;;;;;;19.87;76.01;99677.09;293218;33;839;-82
2023/06/04 00:50:01;;;;;;;347.17;196.98;;;;;;;19.89;75.81;99677.84;290247;33;2314;-80
2023/06/04 00:50:12;;;;;;;357.42;202.00;;;;;;;19.88;75.33;99678.78;287371;34;3044;-81
2023/06/04 00:50:22;;;;;;;365.87;205.70;;;;;;;19.87;75.69;99677.09;286238;34;1242;-81
2023/06/04 00:50:33;;;;;;;377.80;208.27;;;;;;;19.88;75.31;99674.34;281306;34;4815;-81
2023/06/04 00:50:43;;;;;;;380.83;208.93;;;;;;;19.88;75.55;99673.47;277747;35;4175;-81
2023/06/04 00:50:56;;;;;;;381.95;211.68;;;;;;;19.87;74.84;99677.09;276866;35;4985;-81
2023/06/04 00:51:06;;;;;;;380.13;213.48;;;;;;;19.85;75.34;99674.56;279124;35;1505;-83
2023/06/04 00:51:16;;;;;;;376.47;210.03;;;;;;;19.85;75.21;99671.91;282403;34;4183;-85
2023/06/04 00:51:28;;;;;;;377.33;208.53;;;;;;;19.82;74.84;99679.28;281304;34;3378;-82
2023/06/04 00:53:17;;;;;;;317.66;167.04;;;;;;;19.81;74.82;99675.78;2503655;27;20478;-81
2023/06/04 00:53:28;;;;;;;335.70;184.03;;;;;;;19.79;75.13;99674.19;350720;28;3201;-80
2023/06/04 00:53:38;;;;;;;344.40;190.13;;;;;;;19.80;75.30;99674.09;349132;28;3401;-79
2023/06/04 00:53:49;;;;;;;351.63;194.13;;;;;;;19.82;75.40;99679.28;349824;28;3349;-79
2023/06/04 00:54:01;;;;;;;350.88;191.43;;;;;;;19.82;76.04;99677.47;346128;28;905;-79
2023/06/04 00:54:12;;;;;;;349.15;188.63;;;;;;;19.83;75.87;99686.28;348579;28;1298;-79
2023/06/04 00:54:22;;;;;;;349.33;189.10;;;;;;;19.82;76.03;99671.31;348831;28;805;-79
2023/06/04 00:54:34;;;;;;;343.02;186.05;;;;;;;19.84;75.59;99677.34;347413;28;1494;-79
2023/06/04 00:54:44;;;;;;;345.40;187.05;;;;;;;19.85;75.42;99679.03;346278;28;1383;-80